sensor_id;sensor_type;location;lat;lon;timestamp;noise_LAeq;noise_LA_min;noise_LA_max;noise_LA01;noise_LA95
76339;Laerm;26644;50.248;19.032;2023-04-15T00:00:29;48.83;43.77;54.13;;
76339;Laerm;26644;50.248;19.032;2023-04-15T00:03:34;47.60;41.97;52.90;;
76339;Laerm;26644;50.248;19.032;2023-04-15T00:06:42;47.72;43.15;61.57;;
76339;Laerm;26644;50.248;19.032;2023-04-15T00:09:53;47.93;43.14;55.68;;
76339;Laerm;26644;50.248;19.032;2023-04-15T00:12:59;47.14;42.77;51.89;;
76339;Laerm;26644;50.248;19.032;2023-04-15T00:16:06;46.79;42.16;52.79;;
76339;Laerm;26644;50.248;19.032;2023-04-15T00:19:12;48.23;43.56;53.56;;
76339;Laerm;26644;50.248;19.032;2023-04-15T00:22:19;48.87;43.22;59.71;;
76339;Laerm;26644;50.248;19.032;2023-04-15T00:25:25;48.81;44.30;54.21;;
76339;Laerm;26644;50.248;19.032;2023-04-15T00:28:29;49.72;44.11;56.83;;
76339;Laerm;26644;50.248;19.032;2023-04-15T00:31:34;48.36;42.80;53.65;;
76339;Laerm;26644;50.248;19.032;2023-04-15T00:34:39;50.52;45.93;60.86;;
76339;Laerm;26644;50.248;19.032;2023-04-15T00:37:47;47.82;43.55;52.96;;
76339;Laerm;26644;50.248;19.032;2023-04-15T00:40:52;48.28;44.05;55.61;;
76339;Laerm;26644;50.248;19.032;2023-04-15T00:43:57;49.74;44.04;54.99;;
76339;Laerm;26644;50.248;19.032;2023-04-15T00:47:05;49.77;45.61;53.37;;
76339;Laerm;26644;50.248;19.032;2023-04-15T00:50:12;50.05;44.19;60.62;;
76339;Laerm;26644;50.248;19.032;2023-04-15T00:53:19;48.57;43.33;55.57;;
76339;Laerm;26644;50.248;19.032;2023-04-15T00:56:26;49.72;45.94;54.89;;
76339;Laerm;26644;50.248;19.032;2023-04-15T00:59:33;49.92;46.55;53.34;;
76339;Laerm;26644;50.248;19.032;2023-04-15T01:02:38;48.59;44.80;60.56;;
76339;Laerm;26644;50.248;19.032;2023-04-15T01:05:43;50.30;46.02;54.91;;
76339;Laerm;26644;50.248;19.032;2023-04-15T01:08:50;49.17;44.70;54.45;;
76339;Laerm;26644;50.248;19.032;2023-04-15T01:11:55;49.67;45.69;57.96;;
76339;Laerm;26644;50.248;19.032;2023-04-15T01:15:01;49.35;45.07;53.49;;
76339;Laerm;26644;50.248;19.032;2023-04-15T01:18:06;49.48;45.79;53.27;;
76339;Laerm;26644;50.248;19.032;2023-04-15T01:21:13;51.13;44.00;72.70;;
76339;Laerm;26644;50.248;19.032;2023-04-15T01:24:20;48.21;43.65;52.93;;
76339;Laerm;26644;50.248;19.032;2023-04-15T01:27:28;48.93;43.94;56.43;;
76339;Laerm;26644;50.248;19.032;2023-04-15T01:30:34;49.15;44.25;54.42;;
76339;Laerm;26644;50.248;19.032;2023-04-15T01:33:41;48.65;42.59;53.57;;
76339;Laerm;26644;50.248;19.032;2023-04-15T01:36:49;47.07;41.08;52.49;;
76339;Laerm;26644;50.248;19.032;2023-04-15T01:39:57;47.37;41.99;53.93;;
76339;Laerm;26644;50.248;19.032;2023-04-15T01:43:04;47.50;42.65;51.53;;
76339;Laerm;26644;50.248;19.032;2023-04-15T01:46:09;46.81;41.94;51.22;;
76339;Laerm;26644;50.248;19.032;2023-04-15T01:49:13;47.82;42.57;51.76;;
76339;Laerm;26644;50.248;19.032;2023-04-15T01:52:19;47.95;44.57;51.22;;
76339;Laerm;26644;50.248;19.032;2023-04-15T01:55:23;49.07;44.99;56.03;;
76339;Laerm;26644;50.248;19.032;2023-04-15T01:58:31;47.52;43.29;51.52;;
76339;Laerm;26644;50.248;19.032;2023-04-15T02:01:36;49.11;44.45;53.29;;
76339;Laerm;26644;50.248;19.032;2023-04-15T02:04:42;48.91;44.05;58.90;;
76339;Laerm;26644;50.248;19.032;2023-04-15T02:07:47;50.67;45.36;57.90;;
76339;Laerm;26644;50.248;19.032;2023-04-15T02:10:52;49.53;44.35;60.21;;
76339;Laerm;26644;50.248;19.032;2023-04-15T02:13:59;49.49;44.74;55.44;;
76339;Laerm;26644;50.248;19.032;2023-04-15T02:17:05;50.49;44.36;58.16;;
76339;Laerm;26644;50.248;19.032;2023-04-15T02:20:11;49.94;43.92;58.06;;
76339;Laerm;26644;50.248;19.032;2023-04-15T02:23:16;51.02;45.48;58.42;;
76339;Laerm;26644;50.248;19.032;2023-04-15T02:26:21;49.73;44.72;54.84;;
76339;Laerm;26644;50.248;19.032;2023-04-15T02:29:30;50.60;46.75;58.04;;
76339;Laerm;26644;50.248;19.032;2023-04-15T02:32:36;49.56;43.73;55.91;;
76339;Laerm;26644;50.248;19.032;2023-04-15T02:35:41;49.92;44.01;55.30;;
76339;Laerm;26644;50.248;19.032;2023-04-15T02:38:56;49.67;46.24;54.01;;
76339;Laerm;26644;50.248;19.032;2023-04-15T02:42:02;49.86;45.66;54.96;;
76339;Laerm;26644;50.248;19.032;2023-04-15T02:45:11;50.01;45.78;55.51;;
76339;Laerm;26644;50.248;19.032;2023-04-15T02:48:17;50.64;42.94;59.73;;
76339;Laerm;26644;50.248;19.032;2023-04-15T02:51:22;49.73;44.25;56.13;;
76339;Laerm;26644;50.248;19.032;2023-04-15T02:54:26;50.02;44.91;64.66;;
76339;Laerm;26644;50.248;19.032;2023-04-15T02:57:34;50.29;45.56;54.64;;
76339;Laerm;26644;50.248;19.032;2023-04-15T03:00:45;49.89;45.17;62.70;;
76339;Laerm;26644;50.248;19.032;2023-04-15T03:03:52;51.57;46.22;59.13;;
76339;Laerm;26644;50.248;19.032;2023-04-15T03:06:56;51.44;46.02;59.08;;
76339;Laerm;26644;50.248;19.032;2023-04-15T03:10:02;51.04;45.78;59.11;;
76339;Laerm;26644;50.248;19.032;2023-04-15T03:13:07;52.48;46.22;61.48;;
76339;Laerm;26644;50.248;19.032;2023-04-15T03:16:16;50.79;45.34;57.64;;
76339;Laerm;26644;50.248;19.032;2023-04-15T03:19:22;51.54;45.47;58.42;;
76339;Laerm;26644;50.248;19.032;2023-04-15T03:22:27;50.84;47.18;57.82;;
76339;Laerm;26644;50.248;19.032;2023-04-15T03:25:32;49.97;43.64;58.30;;
76339;Laerm;26644;50.248;19.032;2023-04-15T03:28:39;50.77;45.18;58.86;;
76339;Laerm;26644;50.248;19.032;2023-04-15T03:31:46;52.24;47.28;61.58;;
76339;Laerm;26644;50.248;19.032;2023-04-15T03:34:52;53.15;47.97;62.12;;
76339;Laerm;26644;50.248;19.032;2023-04-15T03:37:56;51.38;46.73;58.92;;
76339;Laerm;26644;50.248;19.032;2023-04-15T03:41:02;51.54;47.37;60.17;;
76339;Laerm;26644;50.248;19.032;2023-04-15T03:44:06;50.74;44.59;56.42;;
76339;Laerm;26644;50.248;19.032;2023-04-15T03:47:14;50.73;47.02;55.32;;
76339;Laerm;26644;50.248;19.032;2023-04-15T03:50:19;51.53;47.91;56.44;;
76339;Laerm;26644;50.248;19.032;2023-04-15T03:53:24;51.16;47.59;56.50;;
76339;Laerm;26644;50.248;19.032;2023-04-15T03:56:28;50.75;46.76;57.23;;
76339;Laerm;26644;50.248;19.032;2023-04-15T03:59:33;51.26;47.64;57.13;;
76339;Laerm;26644;50.248;19.032;2023-04-15T04:02:40;51.26;45.87;57.46;;
76339;Laerm;26644;50.248;19.032;2023-04-15T04:05:47;51.20;46.70;69.84;;
76339;Laerm;26644;50.248;19.032;2023-04-15T04:08:51;50.82;45.91;58.03;;
76339;Laerm;26644;50.248;19.032;2023-04-15T04:11:57;51.87;48.63;58.70;;
76339;Laerm;26644;50.248;19.032;2023-04-15T04:15:01;51.98;48.05;60.18;;
76339;Laerm;26644;50.248;19.032;2023-04-15T04:18:09;50.60;46.66;54.42;;
76339;Laerm;26644;50.248;19.032;2023-04-15T04:21:14;51.85;48.16;55.51;;
76339;Laerm;26644;50.248;19.032;2023-04-15T04:24:19;51.94;48.65;62.56;;
76339;Laerm;26644;50.248;19.032;2023-04-15T04:27:23;51.15;46.84;57.92;;
76339;Laerm;26644;50.248;19.032;2023-04-15T04:30:29;51.05;45.79;56.34;;
76339;Laerm;26644;50.248;19.032;2023-04-15T04:33:36;50.09;46.56;57.63;;
76339;Laerm;26644;50.248;19.032;2023-04-15T04:36:41;50.64;46.51;56.25;;
76339;Laerm;26644;50.248;19.032;2023-04-15T04:39:46;51.48;46.18;60.57;;
76339;Laerm;26644;50.248;19.032;2023-04-15T04:42:51;50.84;46.96;65.14;;
76339;Laerm;26644;50.248;19.032;2023-04-15T04:45:55;50.31;45.76;57.71;;
76339;Laerm;26644;50.248;19.032;2023-04-15T04:49:03;50.24;46.46;54.87;;
76339;Laerm;26644;50.248;19.032;2023-04-15T04:52:08;49.95;45.92;56.02;;
76339;Laerm;26644;50.248;19.032;2023-04-15T04:55:14;50.91;46.80;60.53;;
76339;Laerm;26644;50.248;19.032;2023-04-15T04:58:18;50.60;46.07;61.18;;
76339;Laerm;26644;50.248;19.032;2023-04-15T05:01:24;49.95;46.17;61.97;;
76339;Laerm;26644;50.248;19.032;2023-04-15T05:04:31;49.64;45.56;56.14;;
76339;Laerm;26644;50.248;19.032;2023-04-15T05:07:38;49.52;45.57;56.35;;
76339;Laerm;26644;50.248;19.032;2023-04-15T05:10:43;49.92;46.65;64.75;;
76339;Laerm;26644;50.248;19.032;2023-04-15T05:13:48;49.29;45.99;54.45;;
76339;Laerm;26644;50.248;19.032;2023-04-15T05:16:53;50.20;46.74;55.52;;
76339;Laerm;26644;50.248;19.032;2023-04-15T05:20:01;50.44;46.67;59.54;;
76339;Laerm;26644;50.248;19.032;2023-04-15T05:23:05;51.18;46.90;59.64;;
76339;Laerm;26644;50.248;19.032;2023-04-15T05:26:11;50.91;47.56;59.35;;
76339;Laerm;26644;50.248;19.032;2023-04-15T05:29:15;50.05;45.88;64.56;;
76339;Laerm;26644;50.248;19.032;2023-04-15T05:32:21;51.17;46.72;64.74;;
76339;Laerm;26644;50.248;19.032;2023-04-15T05:35:28;50.98;47.21;60.41;;
76339;Laerm;26644;50.248;19.032;2023-04-15T05:38:33;50.22;46.73;57.78;;
76339;Laerm;26644;50.248;19.032;2023-04-15T05:41:37;51.03;47.91;62.70;;
76339;Laerm;26644;50.248;19.032;2023-04-15T05:44:43;51.30;47.95;63.08;;
76339;Laerm;26644;50.248;19.032;2023-04-15T05:47:48;51.20;47.68;57.80;;
76339;Laerm;26644;50.248;19.032;2023-04-15T05:50:58;51.00;47.58;56.34;;
76339;Laerm;26644;50.248;19.032;2023-04-15T05:54:02;50.67;47.10;70.32;;
76339;Laerm;26644;50.248;19.032;2023-04-15T05:57:08;51.43;47.78;57.72;;
76339;Laerm;26644;50.248;19.032;2023-04-15T06:00:13;52.32;46.84;63.14;;
76339;Laerm;26644;50.248;19.032;2023-04-15T06:03:19;50.48;46.86;56.49;;
76339;Laerm;26644;50.248;19.032;2023-04-15T06:06:26;50.23;46.15;63.71;;
76339;Laerm;26644;50.248;19.032;2023-04-15T06:09:32;50.50;47.15;55.24;;
76339;Laerm;26644;50.248;19.032;2023-04-15T06:12:36;50.98;47.93;63.70;;
76339;Laerm;26644;50.248;19.032;2023-04-15T06:15:42;54.19;47.39;69.38;;
76339;Laerm;26644;50.248;19.032;2023-04-15T06:18:46;52.06;48.37;66.46;;
76339;Laerm;26644;50.248;19.032;2023-04-15T06:21:54;51.04;46.99;60.02;;
76339;Laerm;26644;50.248;19.032;2023-04-15T06:24:59;50.85;47.22;55.75;;
76339;Laerm;26644;50.248;19.032;2023-04-15T06:28:05;51.83;48.35;63.02;;
76339;Laerm;26644;50.248;19.032;2023-04-15T06:31:10;50.38;46.63;58.03;;
76339;Laerm;26644;50.248;19.032;2023-04-15T06:34:15;51.72;47.36;62.49;;
76339;Laerm;26644;50.248;19.032;2023-04-15T06:37:22;50.88;47.87;66.27;;
76339;Laerm;26644;50.248;19.032;2023-04-15T06:40:27;50.49;46.73;60.38;;
76339;Laerm;26644;50.248;19.032;2023-04-15T06:43:32;51.39;47.99;61.32;;
76339;Laerm;26644;50.248;19.032;2023-04-15T06:46:37;51.27;48.06;60.99;;
76339;Laerm;26644;50.248;19.032;2023-04-15T06:49:41;51.39;47.57;60.20;;
76339;Laerm;26644;50.248;19.032;2023-04-15T06:52:49;51.62;47.69;66.03;;
76339;Laerm;26644;50.248;19.032;2023-04-15T06:55:54;51.21;46.72;72.42;;
76339;Laerm;26644;50.248;19.032;2023-04-15T06:59:00;51.70;48.12;60.17;;
76339;Laerm;26644;50.248;19.032;2023-04-15T07:02:04;51.00;47.40;61.18;;
76339;Laerm;26644;50.248;19.032;2023-04-15T07:05:13;51.10;47.95;57.70;;
76339;Laerm;26644;50.248;19.032;2023-04-15T07:08:21;51.30;47.71;61.83;;
76339;Laerm;26644;50.248;19.032;2023-04-15T07:11:27;51.42;47.39;57.87;;
76339;Laerm;26644;50.248;19.032;2023-04-15T07:14:32;51.23;47.78;58.12;;
76339;Laerm;26644;50.248;19.032;2023-04-15T07:17:37;51.56;48.09;65.88;;
76339;Laerm;26644;50.248;19.032;2023-04-15T07:20:42;51.81;46.65;57.76;;
76339;Laerm;26644;50.248;19.032;2023-04-15T07:23:50;51.21;48.05;59.52;;
76339;Laerm;26644;50.248;19.032;2023-04-15T07:26:55;50.95;47.57;59.53;;
76339;Laerm;26644;50.248;19.032;2023-04-15T07:30:01;51.57;48.11;58.95;;
76339;Laerm;26644;50.248;19.032;2023-04-15T07:33:06;51.13;47.40;63.09;;
76339;Laerm;26644;50.248;19.032;2023-04-15T07:36:11;52.21;48.56;64.55;;
76339;Laerm;26644;50.248;19.032;2023-04-15T07:39:18;51.16;47.64;64.43;;
76339;Laerm;26644;50.248;19.032;2023-04-15T07:42:24;51.05;47.42;60.83;;
76339;Laerm;26644;50.248;19.032;2023-04-15T07:45:29;51.57;47.89;61.23;;
76339;Laerm;26644;50.248;19.032;2023-04-15T07:48:35;51.49;47.84;63.66;;
76339;Laerm;26644;50.248;19.032;2023-04-15T07:51:39;51.77;48.48;59.26;;
76339;Laerm;26644;50.248;19.032;2023-04-15T07:54:48;51.28;47.39;56.41;;
76339;Laerm;26644;50.248;19.032;2023-04-15T07:57:52;51.46;46.37;62.67;;
76339;Laerm;26644;50.248;19.032;2023-04-15T08:00:57;52.37;48.96;62.10;;
76339;Laerm;26644;50.248;19.032;2023-04-15T08:04:02;52.84;48.49;64.20;;
76339;Laerm;26644;50.248;19.032;2023-04-15T08:07:07;55.17;48.23;68.43;;
76339;Laerm;26644;50.248;19.032;2023-04-15T08:10:14;53.69;48.68;66.12;;
76339;Laerm;26644;50.248;19.032;2023-04-15T08:13:20;50.96;47.27;59.14;;
76339;Laerm;26644;50.248;19.032;2023-04-15T08:16:25;52.50;48.13;57.59;;
76339;Laerm;26644;50.248;19.032;2023-04-15T08:19:31;52.15;48.11;57.94;;
76339;Laerm;26644;50.248;19.032;2023-04-15T08:22:36;51.72;48.01;58.79;;
76339;Laerm;26644;50.248;19.032;2023-04-15T08:25:44;52.99;48.29;63.29;;
76339;Laerm;26644;50.248;19.032;2023-04-15T08:28:49;52.24;49.47;59.25;;
76339;Laerm;26644;50.248;19.032;2023-04-15T08:31:54;51.55;48.06;60.74;;
76339;Laerm;26644;50.248;19.032;2023-04-15T08:34:59;52.38;47.68;65.91;;
76339;Laerm;26644;50.248;19.032;2023-04-15T08:38:04;50.57;47.46;56.64;;
76339;Laerm;26644;50.248;19.032;2023-04-15T08:41:24;50.59;47.28;56.47;;
76339;Laerm;26644;50.248;19.032;2023-04-15T08:44:34;51.24;47.34;60.16;;
76339;Laerm;26644;50.248;19.032;2023-04-15T08:47:44;51.60;47.36;62.44;;
76339;Laerm;26644;50.248;19.032;2023-04-15T08:50:53;52.35;47.93;67.77;;
76339;Laerm;26644;50.248;19.032;2023-04-15T08:53:59;51.66;47.98;59.08;;
76339;Laerm;26644;50.248;19.032;2023-04-15T08:57:07;51.88;48.28;65.15;;
76339;Laerm;26644;50.248;19.032;2023-04-15T09:00:13;51.90;48.08;60.87;;
76339;Laerm;26644;50.248;19.032;2023-04-15T09:03:19;52.84;48.52;61.25;;
76339;Laerm;26644;50.248;19.032;2023-04-15T09:06:25;51.86;48.54;65.47;;
76339;Laerm;26644;50.248;19.032;2023-04-15T09:09:31;52.35;47.91;60.81;;
76339;Laerm;26644;50.248;19.032;2023-04-15T09:12:40;53.58;48.40;61.89;;
76339;Laerm;26644;50.248;19.032;2023-04-15T09:15:46;55.09;49.48;78.62;;
76339;Laerm;26644;50.248;19.032;2023-04-15T09:18:52;53.19;49.12;71.71;;
76339;Laerm;26644;50.248;19.032;2023-04-15T09:21:58;54.63;49.21;73.82;;
76339;Laerm;26644;50.248;19.032;2023-04-15T09:25:06;54.39;47.96;73.76;;
76339;Laerm;26644;50.248;19.032;2023-04-15T09:28:31;51.79;48.24;61.21;;
76339;Laerm;26644;50.248;19.032;2023-04-15T09:31:37;53.19;48.56;66.42;;
76339;Laerm;26644;50.248;19.032;2023-04-15T09:34:42;51.87;48.56;66.16;;
76339;Laerm;26644;50.248;19.032;2023-04-15T09:37:47;52.97;48.73;69.99;;
76339;Laerm;26644;50.248;19.032;2023-04-15T09:40:53;52.67;48.62;62.74;;
76339;Laerm;26644;50.248;19.032;2023-04-15T09:44:00;52.17;49.00;62.03;;
76339;Laerm;26644;50.248;19.032;2023-04-15T09:47:05;53.77;48.83;64.85;;
76339;Laerm;26644;50.248;19.032;2023-04-15T09:50:10;53.59;49.83;60.66;;
76339;Laerm;26644;50.248;19.032;2023-04-15T09:53:17;52.65;48.93;63.24;;
76339;Laerm;26644;50.248;19.032;2023-04-15T09:56:22;53.34;49.12;69.33;;
76339;Laerm;26644;50.248;19.032;2023-04-15T09:59:30;53.79;48.29;68.27;;
76339;Laerm;26644;50.248;19.032;2023-04-15T10:02:34;53.81;48.84;68.94;;
76339;Laerm;26644;50.248;19.032;2023-04-15T10:05:40;53.14;49.42;71.64;;
76339;Laerm;26644;50.248;19.032;2023-04-15T10:08:46;52.65;49.05;61.69;;
76339;Laerm;26644;50.248;19.032;2023-04-15T10:11:52;52.68;49.62;61.79;;
76339;Laerm;26644;50.248;19.032;2023-04-15T10:15:04;52.93;49.62;64.76;;
76339;Laerm;26644;50.248;19.032;2023-04-15T10:18:12;52.49;48.86;58.72;;
76339;Laerm;26644;50.248;19.032;2023-04-15T10:21:20;53.84;49.93;61.33;;
76339;Laerm;26644;50.248;19.032;2023-04-15T10:24:27;52.84;49.44;60.78;;
76339;Laerm;26644;50.248;19.032;2023-04-15T10:27:32;54.01;48.78;76.36;;
76339;Laerm;26644;50.248;19.032;2023-04-15T10:30:42;52.27;48.45;68.85;;
76339;Laerm;26644;50.248;19.032;2023-04-15T10:33:49;51.40;48.36;67.00;;
76339;Laerm;26644;50.248;19.032;2023-04-15T10:36:55;51.44;47.62;57.58;;
76339;Laerm;26644;50.248;19.032;2023-04-15T10:40:00;51.51;48.19;61.03;;
76339;Laerm;26644;50.248;19.032;2023-04-15T10:43:05;53.22;48.67;70.41;;
76339;Laerm;26644;50.248;19.032;2023-04-15T10:46:13;54.64;49.09;67.31;;
76339;Laerm;26644;50.248;19.032;2023-04-15T10:49:25;52.14;48.00;63.46;;
76339;Laerm;26644;50.248;19.032;2023-04-15T10:52:30;54.05;49.88;66.08;;
76339;Laerm;26644;50.248;19.032;2023-04-15T10:55:35;52.72;48.32;63.69;;
76339;Laerm;26644;50.248;19.032;2023-04-15T10:58:43;53.54;49.69;64.64;;
76339;Laerm;26644;50.248;19.032;2023-04-15T11:02:01;54.96;49.97;70.76;;
76339;Laerm;26644;50.248;19.032;2023-04-15T11:05:07;53.61;49.30;67.28;;
76339;Laerm;26644;50.248;19.032;2023-04-15T11:08:12;52.37;48.65;64.36;;
76339;Laerm;26644;50.248;19.032;2023-04-15T11:11:17;52.92;48.44;65.72;;
76339;Laerm;26644;50.248;19.032;2023-04-15T11:14:22;53.17;49.74;61.35;;
76339;Laerm;26644;50.248;19.032;2023-04-15T11:17:30;53.52;49.51;68.64;;
76339;Laerm;26644;50.248;19.032;2023-04-15T11:20:36;52.40;48.32;68.02;;
76339;Laerm;26644;50.248;19.032;2023-04-15T11:23:42;52.86;49.57;63.02;;
76339;Laerm;26644;50.248;19.032;2023-04-15T11:26:48;53.24;49.23;67.92;;
76339;Laerm;26644;50.248;19.032;2023-04-15T11:29:53;52.97;48.83;63.63;;
76339;Laerm;26644;50.248;19.032;2023-04-15T11:33:04;52.74;49.04;62.18;;
76339;Laerm;26644;50.248;19.032;2023-04-15T11:36:10;53.01;48.76;62.96;;
76339;Laerm;26644;50.248;19.032;2023-04-15T11:39:15;52.87;49.34;58.32;;
76339;Laerm;26644;50.248;19.032;2023-04-15T11:42:20;54.01;49.20;69.48;;
76339;Laerm;26644;50.248;19.032;2023-04-15T11:45:25;54.43;48.79;76.59;;
76339;Laerm;26644;50.248;19.032;2023-04-15T11:48:35;53.55;48.83;67.54;;
76339;Laerm;26644;50.248;19.032;2023-04-15T11:51:40;51.57;48.15;60.55;;
76339;Laerm;26644;50.248;19.032;2023-04-15T11:54:45;51.65;47.89;64.81;;
76339;Laerm;26644;50.248;19.032;2023-04-15T11:58:05;52.43;48.26;68.11;;
76339;Laerm;26644;50.248;19.032;2023-04-15T12:01:09;52.52;49.35;60.96;;
76339;Laerm;26644;50.248;19.032;2023-04-15T12:04:18;52.26;48.22;61.79;;
76339;Laerm;26644;50.248;19.032;2023-04-15T12:07:23;52.13;48.92;59.86;;
76339;Laerm;26644;50.248;19.032;2023-04-15T12:10:31;52.22;48.33;58.03;;
76339;Laerm;26644;50.248;19.032;2023-04-15T12:13:35;53.25;48.79;61.30;;
76339;Laerm;26644;50.248;19.032;2023-04-15T12:16:43;53.44;50.02;61.17;;
76339;Laerm;26644;50.248;19.032;2023-04-15T12:19:55;53.45;49.15;66.60;;
76339;Laerm;26644;50.248;19.032;2023-04-15T12:23:05;53.53;50.03;65.24;;
76339;Laerm;26644;50.248;19.032;2023-04-15T12:26:09;53.01;49.12;68.30;;
76339;Laerm;26644;50.248;19.032;2023-04-15T12:29:16;52.42;48.80;63.14;;
76339;Laerm;26644;50.248;19.032;2023-04-15T12:32:21;53.39;48.45;73.73;;
76339;Laerm;26644;50.248;19.032;2023-04-15T12:35:29;61.83;50.06;81.75;;
76339;Laerm;26644;50.248;19.032;2023-04-15T12:38:33;55.66;49.29;71.37;;
76339;Laerm;26644;50.248;19.032;2023-04-15T12:41:39;51.96;47.30;65.12;;
76339;Laerm;26644;50.248;19.032;2023-04-15T12:44:43;51.45;47.88;60.51;;
76339;Laerm;26644;50.248;19.032;2023-04-15T12:47:49;50.96;47.05;63.50;;
76339;Laerm;26644;50.248;19.032;2023-04-15T12:50:56;51.45;47.28;65.19;;
76339;Laerm;26644;50.248;19.032;2023-04-15T12:54:01;51.86;47.03;61.91;;
76339;Laerm;26644;50.248;19.032;2023-04-15T12:57:06;51.58;46.40;65.66;;
76339;Laerm;26644;50.248;19.032;2023-04-15T13:00:13;52.18;47.03;61.05;;
76339;Laerm;26644;50.248;19.032;2023-04-15T13:03:18;52.74;46.41;65.46;;
76339;Laerm;26644;50.248;19.032;2023-04-15T13:06:25;58.21;47.82;69.84;;
76339;Laerm;26644;50.248;19.032;2023-04-15T13:09:30;49.79;45.45;61.40;;
76339;Laerm;26644;50.248;19.032;2023-04-15T13:12:36;49.52;45.11;67.02;;
76339;Laerm;26644;50.248;19.032;2023-04-15T13:15:41;51.89;46.26;69.18;;
76339;Laerm;26644;50.248;19.032;2023-04-15T13:18:47;49.20;45.99;63.89;;
76339;Laerm;26644;50.248;19.032;2023-04-15T13:21:54;49.98;44.40;69.48;;
76339;Laerm;26644;50.248;19.032;2023-04-15T13:25:00;50.56;45.63;61.68;;
76339;Laerm;26644;50.248;19.032;2023-04-15T13:28:04;51.32;47.52;64.79;;
76339;Laerm;26644;50.248;19.032;2023-04-15T13:31:09;52.60;47.52;60.43;;
76339;Laerm;26644;50.248;19.032;2023-04-15T13:34:14;52.03;48.24;66.24;;
76339;Laerm;26644;50.248;19.032;2023-04-15T13:37:26;54.08;48.39;67.98;;
76339;Laerm;26644;50.248;19.032;2023-04-15T13:40:30;53.35;49.60;67.55;;
76339;Laerm;26644;50.248;19.032;2023-04-15T13:43:36;53.37;49.46;64.39;;
76339;Laerm;26644;50.248;19.032;2023-04-15T13:46:41;53.79;49.53;67.38;;
76339;Laerm;26644;50.248;19.032;2023-04-15T13:49:47;53.62;49.74;65.64;;
76339;Laerm;26644;50.248;19.032;2023-04-15T13:52:55;52.84;49.29;62.02;;
76339;Laerm;26644;50.248;19.032;2023-04-15T13:56:01;52.61;48.75;61.05;;
76339;Laerm;26644;50.248;19.032;2023-04-15T13:59:05;53.32;48.82;70.57;;
76339;Laerm;26644;50.248;19.032;2023-04-15T14:02:11;52.80;49.35;62.64;;
76339;Laerm;26644;50.248;19.032;2023-04-15T14:05:15;53.27;49.44;60.60;;
76339;Laerm;26644;50.248;19.032;2023-04-15T14:08:24;54.36;48.93;69.59;;
76339;Laerm;26644;50.248;19.032;2023-04-15T14:11:28;52.84;48.66;61.80;;
76339;Laerm;26644;50.248;19.032;2023-04-15T14:14:36;52.98;49.10;62.47;;
76339;Laerm;26644;50.248;19.032;2023-04-15T14:17:40;52.37;49.10;56.96;;
76339;Laerm;26644;50.248;19.032;2023-04-15T14:20:46;57.54;48.90;90.19;;
76339;Laerm;26644;50.248;19.032;2023-04-15T14:23:53;53.60;50.38;60.67;;
76339;Laerm;26644;50.248;19.032;2023-04-15T14:26:58;52.80;49.59;59.85;;
76339;Laerm;26644;50.248;19.032;2023-04-15T14:30:05;53.06;49.46;65.66;;
76339;Laerm;26644;50.248;19.032;2023-04-15T14:33:10;52.75;48.74;62.42;;
76339;Laerm;26644;50.248;19.032;2023-04-15T14:36:15;53.11;49.03;64.10;;
76339;Laerm;26644;50.248;19.032;2023-04-15T14:39:23;53.24;48.95;64.07;;
76339;Laerm;26644;50.248;19.032;2023-04-15T14:42:27;53.42;49.75;63.76;;
76339;Laerm;26644;50.248;19.032;2023-04-15T14:45:33;54.96;49.86;73.20;;
76339;Laerm;26644;50.248;19.032;2023-04-15T14:48:38;56.14;51.48;68.55;;
76339;Laerm;26644;50.248;19.032;2023-04-15T14:51:43;54.41;49.45;73.00;;
76339;Laerm;26644;50.248;19.032;2023-04-15T14:54:50;60.06;49.83;81.19;;
76339;Laerm;26644;50.248;19.032;2023-04-15T14:57:56;54.99;49.63;78.86;;
76339;Laerm;26644;50.248;19.032;2023-04-15T15:01:03;52.91;49.54;61.19;;
76339;Laerm;26644;50.248;19.032;2023-04-15T15:04:09;53.48;49.81;62.56;;
76339;Laerm;26644;50.248;19.032;2023-04-15T15:07:14;55.00;50.44;68.15;;
76339;Laerm;26644;50.248;19.032;2023-04-15T15:10:22;53.08;49.53;59.89;;
76339;Laerm;26644;50.248;19.032;2023-04-15T15:13:27;54.21;49.62;64.63;;
76339;Laerm;26644;50.248;19.032;2023-04-15T15:16:32;54.21;49.80;73.12;;
76339;Laerm;26644;50.248;19.032;2023-04-15T15:19:37;53.62;48.99;63.09;;
76339;Laerm;26644;50.248;19.032;2023-04-15T15:22:42;53.85;48.83;66.32;;
76339;Laerm;26644;50.248;19.032;2023-04-15T15:25:50;53.07;48.21;64.60;;
76339;Laerm;26644;50.248;19.032;2023-04-15T15:28:55;55.29;48.21;61.70;;
76339;Laerm;26644;50.248;19.032;2023-04-15T15:32:00;56.93;49.08;66.10;;
76339;Laerm;26644;50.248;19.032;2023-04-15T15:35:06;51.96;47.86;59.11;;
76339;Laerm;26644;50.248;19.032;2023-04-15T15:38:12;55.86;47.93;65.77;;
76339;Laerm;26644;50.248;19.032;2023-04-15T15:41:20;57.71;50.69;67.25;;
76339;Laerm;26644;50.248;19.032;2023-04-15T15:44:24;52.45;48.29;60.26;;
76339;Laerm;26644;50.248;19.032;2023-04-15T15:47:29;54.43;48.07;76.51;;
76339;Laerm;26644;50.248;19.032;2023-04-15T15:50:34;54.96;49.74;63.93;;
76339;Laerm;26644;50.248;19.032;2023-04-15T15:53:39;56.56;51.11;67.26;;
76339;Laerm;26644;50.248;19.032;2023-04-15T15:56:47;54.66;48.10;67.92;;
76339;Laerm;26644;50.248;19.032;2023-04-15T15:59:52;57.09;47.60;68.78;;
76339;Laerm;26644;50.248;19.032;2023-04-15T16:02:57;55.75;49.76;70.53;;
76339;Laerm;26644;50.248;19.032;2023-04-15T16:06:03;54.01;48.43;63.01;;
76339;Laerm;26644;50.248;19.032;2023-04-15T16:09:07;53.66;48.92;68.06;;
76339;Laerm;26644;50.248;19.032;2023-04-15T16:12:15;56.64;51.58;66.18;;
76339;Laerm;26644;50.248;19.032;2023-04-15T16:15:21;57.12;51.27;62.62;;
76339;Laerm;26644;50.248;19.032;2023-04-15T16:18:26;56.34;50.78;64.35;;
76339;Laerm;26644;50.248;19.032;2023-04-15T16:21:30;56.80;48.93;63.10;;
76339;Laerm;26644;50.248;19.032;2023-04-15T16:24:36;51.87;48.49;61.00;;
76339;Laerm;26644;50.248;19.032;2023-04-15T16:27:43;55.07;49.38;72.95;;
76339;Laerm;26644;50.248;19.032;2023-04-15T16:30:48;53.06;49.48;61.57;;
76339;Laerm;26644;50.248;19.032;2023-04-15T16:33:53;54.29;49.47;69.60;;
76339;Laerm;26644;50.248;19.032;2023-04-15T16:36:58;52.39;48.95;61.71;;
76339;Laerm;26644;50.248;19.032;2023-04-15T16:40:03;52.27;48.67;59.03;;
76339;Laerm;26644;50.248;19.032;2023-04-15T16:43:12;52.96;48.70;62.64;;
76339;Laerm;26644;50.248;19.032;2023-04-15T16:46:16;52.43;49.20;64.37;;
76339;Laerm;26644;50.248;19.032;2023-04-15T16:49:21;52.31;48.55;58.77;;
76339;Laerm;26644;50.248;19.032;2023-04-15T16:52:27;53.10;49.05;58.15;;
76339;Laerm;26644;50.248;19.032;2023-04-15T16:55:32;59.50;50.66;79.86;;
76339;Laerm;26644;50.248;19.032;2023-04-15T16:58:40;65.03;50.67;93.31;;
76339;Laerm;26644;50.248;19.032;2023-04-15T17:01:45;57.99;50.85;75.90;;
76339;Laerm;26644;50.248;19.032;2023-04-15T17:04:49;57.67;51.22;73.16;;